createdAt,value
2023-05-24T00:00:57.949Z,83.3229
2023-05-24T00:02:00.900Z,83.4167
2023-05-24T00:03:03.917Z,83.5467
2023-05-24T00:04:06.880Z,83.8845
2023-05-24T00:05:09.872Z,83.7099
2023-05-24T00:06:12.687Z,83.4360
2023-05-24T00:07:15.713Z,83.1605
2023-05-24T00:08:18.607Z,82.7415
2023-05-24T00:09:21.555Z,82.8236
2023-05-24T00:10:24.494Z,83.1322
2023-05-24T00:11:27.450Z,83.2663
2023-05-24T00:12:30.434Z,83.1346
2023-05-24T00:13:33.374Z,83.1070
2023-05-24T00:14:36.366Z,83.7344
2023-05-24T00:15:39.273Z,83.5050
2023-05-24T00:16:42.266Z,83.3243
2023-05-24T00:17:45.207Z,83.0934
2023-05-24T00:18:48.118Z,83.1125
2023-05-24T00:19:51.192Z,82.7471
2023-05-24T00:20:54.052Z,83.1304
2023-05-24T00:21:56.976Z,83.6768
2023-05-24T00:22:59.930Z,83.1273
2023-05-24T00:24:02.882Z,82.7788
2023-05-24T00:25:05.858Z,82.7896
2023-05-24T00:26:08.777Z,82.8505
2023-05-24T00:27:11.734Z,82.5653
2023-05-24T00:28:14.692Z,82.0746
2023-05-24T00:29:17.669Z,82.1588
2023-05-24T00:30:20.617Z,82.1170
2023-05-24T00:31:23.580Z,82.1073
2023-05-24T00:32:26.551Z,81.8130
2023-05-24T00:33:29.460Z,82.0519
2023-05-24T00:34:32.422Z,82.3472
2023-05-24T00:35:35.399Z,82.1218
2023-05-24T00:36:38.482Z,81.5007
2023-05-24T00:37:41.302Z,81.5122
2023-05-24T00:38:44.242Z,81.4840
2023-05-24T00:39:47.218Z,81.3207
2023-05-24T00:40:50.157Z,81.1599
2023-05-24T00:41:53.128Z,80.7456
2023-05-24T00:42:56.075Z,80.2512
2023-05-24T00:43:59.026Z,80.6451
2023-05-24T00:45:01.981Z,81.4056
2023-05-24T00:46:04.945Z,81.1776
2023-05-24T00:47:07.900Z,80.4981
2023-05-24T00:48:10.816Z,80.0684
2023-05-24T00:49:13.772Z,80.6412
2023-05-24T00:50:16.729Z,79.9991
2023-05-24T00:51:19.684Z,79.8393
2023-05-24T00:52:22.635Z,80.0304
2023-05-24T00:53:25.615Z,80.9023
2023-05-24T00:54:28.534Z,80.3667
2023-05-24T00:55:31.495Z,80.2758
2023-05-24T00:56:34.492Z,80.6951
2023-05-24T00:57:37.423Z,80.4959
2023-05-24T00:58:40.346Z,80.2592
2023-05-24T00:59:43.336Z,80.7361
2023-05-24T01:00:46.245Z,80.9767
2023-05-24T01:01:49.315Z,81.1159
2023-05-24T01:02:52.254Z,81.2043
2023-05-24T01:03:55.139Z,81.2396
2023-05-24T01:04:58.084Z,81.5638
2023-05-24T01:06:01.025Z,81.4534
2023-05-24T01:07:04.016Z,81.3129
2023-05-24T01:08:06.977Z,81.0727
2023-05-24T01:09:09.891Z,81.1191
2023-05-24T01:10:12.840Z,81.1057
2023-05-24T01:11:15.793Z,81.2951
2023-05-24T01:12:18.750Z,81.2649
2023-05-24T01:13:21.698Z,80.8866
2023-05-24T01:14:24.681Z,80.6504
2023-05-24T01:15:27.595Z,80.6773
2023-05-24T01:16:30.754Z,80.5280
2023-05-24T01:17:33.524Z,80.7550
2023-05-24T01:18:36.476Z,80.6449
2023-05-24T01:19:39.407Z,80.9246
2023-05-24T01:20:42.590Z,81.6190
2023-05-24T01:21:45.300Z,81.7349
2023-05-24T01:22:48.266Z,81.4633
2023-05-24T01:23:51.328Z,81.9377
2023-05-24T01:24:54.157Z,81.5886
2023-05-24T01:25:57.120Z,81.7943
2023-05-24T01:27:00.057Z,81.7190
2023-05-24T01:28:03.007Z,81.9665
2023-05-24T01:29:05.979Z,82.7355
2023-05-24T01:30:08.935Z,82.9113
2023-05-24T01:31:11.878Z,82.2162
2023-05-24T01:32:14.813Z,81.4530
2023-05-24T01:33:17.761Z,81.6143
2023-05-24T01:34:20.745Z,81.6925
2023-05-24T01:35:23.664Z,80.9229
2023-05-24T01:36:26.616Z,81.3552
2023-05-24T01:37:29.574Z,80.9503
2023-05-24T01:38:32.534Z,80.5699
2023-05-24T01:39:35.507Z,80.7416
2023-05-24T01:40:38.424Z,80.2852
2023-05-24T01:41:41.444Z,80.8054
2023-05-24T01:42:44.347Z,79.3530
2023-05-24T01:43:47.297Z,79.4818
2023-05-24T01:44:50.230Z,80.0137
2023-05-24T01:45:53.190Z,80.5397
2023-05-24T01:46:56.180Z,81.6912
2023-05-24T01:47:59.128Z,81.4368
2023-05-24T01:49:02.039Z,81.3969
2023-05-24T01:50:04.993Z,81.7954
2023-05-24T01:51:07.952Z,82.0532
2023-05-24T01:52:11.115Z,80.4875
2023-05-24T01:53:13.836Z,78.5403
2023-05-24T01:54:16.801Z,78.2962
2023-05-24T01:55:19.747Z,79.8854
2023-05-24T01:56:22.721Z,80.7738
2023-05-24T01:57:25.668Z,80.3760
2023-05-24T01:58:28.698Z,79.7042
2023-05-24T01:59:31.585Z,79.6699
2023-05-24T02:00:34.629Z,79.7077
2023-05-24T02:01:37.525Z,80.7430
2023-05-24T02:02:40.441Z,81.1068
2023-05-24T02:03:43.390Z,80.8206
2023-05-24T02:04:46.405Z,80.6766
2023-05-24T02:05:49.254Z,81.1012
2023-05-24T02:06:52.194Z,81.4242
2023-05-24T02:07:55.159Z,81.7507
2023-05-24T02:08:58.116Z,81.2307
2023-05-24T02:10:01.084Z,81.0123
2023-05-24T02:11:04.004Z,79.8677
2023-05-24T02:12:06.996Z,80.1744
2023-05-24T02:13:09.902Z,80.8682
2023-05-24T02:14:12.866Z,80.4679
2023-05-24T02:15:15.816Z,80.4378
2023-05-24T02:16:18.804Z,79.7737
2023-05-24T02:17:21.764Z,79.3700
2023-05-24T02:18:24.673Z,79.3409
2023-05-24T02:19:27.665Z,80.2066
2023-05-24T02:20:30.740Z,80.2634
2023-05-24T02:21:33.558Z,80.1660
2023-05-24T02:22:36.484Z,80.5491
2023-05-24T02:23:39.442Z,80.6798
2023-05-24T02:24:42.409Z,80.7414
2023-05-24T02:25:45.336Z,81.2363
2023-05-24T02:26:48.401Z,80.8336
2023-05-24T02:27:51.241Z,79.9949
2023-05-24T02:28:54.194Z,79.6729
2023-05-24T02:29:57.217Z,78.8333
2023-05-24T02:31:00.153Z,79.9764
2023-05-24T02:32:03.038Z,79.0661
2023-05-24T02:33:06.064Z,79.0781
2023-05-24T02:34:08.962Z,79.7986
2023-05-24T02:35:11.931Z,79.7057
2023-05-24T02:36:14.900Z,79.5602
2023-05-24T02:37:17.820Z,78.8286
2023-05-24T02:38:20.787Z,78.5781
2023-05-24T02:39:23.740Z,79.0792
2023-05-24T02:40:26.687Z,79.7874
2023-05-24T02:41:29.650Z,79.1610
2023-05-24T02:42:32.586Z,78.4951
2023-05-24T02:43:35.557Z,78.4070
2023-05-24T02:44:38.500Z,78.9104
2023-05-24T02:45:41.464Z,79.2815
2023-05-24T02:46:44.450Z,80.0621
2023-05-24T02:47:47.375Z,80.7025
2023-05-24T02:48:50.314Z,81.0046
2023-05-24T02:49:53.285Z,80.6213
2023-05-24T02:50:56.216Z,80.2093
2023-05-24T02:51:59.192Z,79.8988
2023-05-24T02:53:02.205Z,79.5123
2023-05-24T02:54:05.090Z,80.0961
2023-05-24T02:55:08.033Z,79.9157
2023-05-24T02:56:10.994Z,79.7763
2023-05-24T02:57:14.011Z,80.9997
2023-05-24T02:58:16.899Z,80.3136
2023-05-24T02:59:19.881Z,80.3783
2023-05-24T03:00:22.804Z,80.3395
2023-05-24T03:01:25.791Z,80.6523
2023-05-24T03:02:28.782Z,81.4811
2023-05-24T03:03:31.735Z,80.7222
2023-05-24T03:04:34.624Z,79.0958
2023-05-24T03:05:37.587Z,79.3284
2023-05-24T03:06:40.549Z,79.7449
2023-05-24T03:07:43.490Z,79.3875
2023-05-24T03:08:46.463Z,79.3832
2023-05-24T03:09:49.386Z,79.5765
2023-05-24T03:10:52.362Z,79.4169
2023-05-24T03:11:55.294Z,79.1637
2023-05-24T03:12:58.267Z,79.0266
2023-05-24T03:14:01.200Z,79.3980
2023-05-24T03:15:04.188Z,79.4622
2023-05-24T03:16:07.309Z,79.7296
2023-05-24T03:17:10.074Z,80.0109
2023-05-24T03:18:13.021Z,80.0565
2023-05-24T03:19:16.010Z,80.2011
2023-05-24T03:20:18.963Z,79.8437
2023-05-24T03:21:21.898Z,79.5450
2023-05-24T03:22:24.827Z,79.1421
2023-05-24T03:23:27.781Z,78.9536
2023-05-24T03:24:30.740Z,78.6152
2023-05-24T03:25:33.707Z,79.2970
2023-05-24T03:26:36.659Z,79.7197
2023-05-24T03:27:39.609Z,79.9057
2023-05-24T03:28:42.544Z,79.6124
2023-05-24T03:29:45.520Z,79.7159
2023-05-24T03:30:48.451Z,79.8482
2023-05-24T03:31:51.633Z,80.0607
2023-05-24T03:32:54.357Z,80.6232
2023-05-24T03:33:57.307Z,80.7841
2023-05-24T03:35:00.255Z,80.5877
2023-05-24T03:36:03.241Z,80.2895
2023-05-24T03:37:06.145Z,80.0288
2023-05-24T03:38:09.217Z,79.4601
2023-05-24T03:39:12.040Z,78.7713
2023-05-24T03:40:15.062Z,79.0346
2023-05-24T03:41:18.009Z,79.3798
2023-05-24T03:42:20.947Z,79.4886
2023-05-24T03:43:23.904Z,80.2262
2023-05-24T03:44:26.831Z,79.7555
2023-05-24T03:45:38.582Z,79.2936
2023-05-24T03:46:32.775Z,79.3997
2023-05-24T03:47:35.683Z,79.5536
2023-05-24T03:48:38.649Z,79.0332
2023-05-24T03:49:41.578Z,79.0624
2023-05-24T03:50:44.719Z,79.5315
2023-05-24T03:51:47.467Z,79.2791
2023-05-24T03:52:50.423Z,79.8419
2023-05-24T03:53:53.379Z,80.4069
2023-05-24T03:54:56.332Z,79.7669
2023-05-24T03:55:59.238Z,79.3290
2023-05-24T03:57:02.203Z,79.1159
2023-05-24T03:58:05.140Z,79.5507
2023-05-24T03:59:08.106Z,79.7107
2023-05-24T04:00:11.052Z,79.6921
2023-05-24T04:01:25.512Z,79.5990
2023-05-24T04:02:16.959Z,80.4643
2023-05-24T04:03:20.060Z,80.3078
2023-05-24T04:04:22.903Z,80.4930
2023-05-24T04:05:26.102Z,80.5281
2023-05-24T04:06:28.754Z,80.0021
2023-05-24T04:07:31.664Z,80.4957
2023-05-24T04:08:34.611Z,79.8745
2023-05-24T04:09:37.571Z,79.8479
2023-05-24T04:10:40.716Z,79.7625
2023-05-24T04:11:43.473Z,79.3443
2023-05-24T04:12:46.437Z,79.2861
2023-05-24T04:13:49.336Z,79.5212
2023-05-24T04:14:52.303Z,79.5327
2023-05-24T04:15:55.220Z,79.8552
2023-05-24T04:16:58.303Z,79.9457
2023-05-24T04:18:01.254Z,79.9621
2023-05-24T04:19:04.180Z,79.8324
2023-05-24T04:20:07.057Z,79.7459
2023-05-24T04:21:10.032Z,79.5245
2023-05-24T04:22:12.912Z,79.6206
2023-05-24T04:23:15.835Z,80.1352
2023-05-24T04:24:18.793Z,79.9671
2023-05-24T04:25:21.750Z,79.6972
2023-05-24T04:26:24.681Z,79.5516
2023-05-24T04:27:27.629Z,79.4119
2023-05-24T04:28:30.574Z,79.3455
2023-05-24T04:29:33.518Z,80.0165
2023-05-24T04:30:36.573Z,79.7287
2023-05-24T04:31:39.431Z,80.3427
2023-05-24T04:32:42.374Z,80.2511
2023-05-24T04:33:45.296Z,81.3569
2023-05-24T04:34:48.244Z,81.3011
2023-05-24T04:35:51.200Z,80.9401
2023-05-24T04:36:54.163Z,80.9746
2023-05-24T04:37:57.112Z,80.7424
2023-05-24T04:39:00.046Z,80.7214
2023-05-24T04:40:02.975Z,80.6456
2023-05-24T04:41:05.926Z,80.3379
2023-05-24T04:42:08.888Z,80.1413
2023-05-24T04:43:11.872Z,79.8839
2023-05-24T04:44:14.742Z,80.4180
2023-05-24T04:45:17.731Z,80.4047
2023-05-24T04:46:20.728Z,80.4501
2023-05-24T04:47:23.609Z,80.7445
2023-05-24T04:48:26.528Z,80.9189
2023-05-24T04:49:29.487Z,81.1533
2023-05-24T04:50:32.507Z,81.1683
2023-05-24T04:51:35.432Z,80.9363
2023-05-24T04:52:38.312Z,80.6567
2023-05-24T04:53:41.264Z,80.8807
2023-05-24T04:54:44.217Z,80.6027
2023-05-24T04:55:47.155Z,80.5715
2023-05-24T04:56:50.119Z,80.4193
2023-05-24T04:57:53.069Z,80.0599
2023-05-24T04:58:55.989Z,80.0040
2023-05-24T04:59:58.962Z,81.2292
2023-05-24T05:01:01.939Z,80.4612
2023-05-24T05:02:04.952Z,80.3498
2023-05-24T05:03:07.917Z,80.3396
2023-05-24T05:04:10.832Z,80.8444
2023-05-24T05:05:13.702Z,80.5392
2023-05-24T05:06:16.615Z,80.7068
2023-05-24T05:07:19.709Z,81.1856
2023-05-24T05:08:22.578Z,81.0209
2023-05-24T05:09:25.456Z,80.3681
2023-05-24T05:10:28.390Z,80.3778
2023-05-24T05:11:31.354Z,80.3242
2023-05-24T05:12:34.284Z,79.9816
2023-05-24T05:13:37.329Z,80.3423
2023-05-24T05:14:40.200Z,80.5744
2023-05-24T05:15:43.171Z,80.1042
2023-05-24T05:16:46.180Z,80.0082
2023-05-24T05:17:49.077Z,80.5618
2023-05-24T05:18:51.976Z,79.8286
2023-05-24T05:19:54.925Z,79.5472
2023-05-24T05:20:57.941Z,79.8753
2023-05-24T05:22:00.794Z,79.8053
2023-05-24T05:23:03.835Z,79.6328
2023-05-24T05:24:06.706Z,79.6312
2023-05-24T05:25:09.626Z,79.7056
2023-05-24T05:26:12.582Z,79.2505
2023-05-24T05:27:15.617Z,79.3695
2023-05-24T05:28:18.511Z,79.4056
2023-05-24T05:29:23.581Z,79.7751
2023-05-24T05:30:24.369Z,80.3061
2023-05-24T05:31:27.329Z,80.6941
2023-05-24T05:32:30.394Z,81.0383
2023-05-24T05:33:33.232Z,80.8214
2023-05-24T05:34:36.162Z,81.1675
2023-05-24T05:35:39.168Z,80.7151
2023-05-24T05:36:42.027Z,80.6367
2023-05-24T05:37:44.996Z,80.5257
2023-05-24T05:38:47.971Z,80.7631
2023-05-24T05:39:50.896Z,80.4210
2023-05-24T05:40:53.834Z,80.5234
2023-05-24T05:41:56.799Z,80.4362
2023-05-24T05:42:59.716Z,80.3330
2023-05-24T05:44:02.735Z,79.4024
2023-05-24T05:45:05.628Z,79.7770
2023-05-24T05:46:08.601Z,80.7669
2023-05-24T05:47:11.497Z,80.8697
2023-05-24T05:48:14.463Z,80.9114
2023-05-24T05:49:17.383Z,80.8256
2023-05-24T05:50:20.339Z,80.3472
2023-05-24T05:51:23.269Z,80.1193
2023-05-24T05:52:26.235Z,80.2720
2023-05-24T05:53:29.196Z,79.5941
2023-05-24T05:54:32.116Z,80.0830
2023-05-24T05:55:35.062Z,80.1656
2023-05-24T05:56:37.993Z,79.9176
2023-05-24T05:57:41.166Z,79.4899
2023-05-24T05:58:43.884Z,80.3769
2023-05-24T05:59:46.856Z,80.0860
2023-05-24T06:00:49.830Z,79.6462
2023-05-24T06:01:52.712Z,79.9844
2023-05-24T06:02:55.811Z,80.2754
2023-05-24T06:03:58.735Z,80.1428
2023-05-24T06:05:01.598Z,79.8536
2023-05-24T06:06:04.537Z,79.6020
2023-05-24T06:07:07.524Z,80.0524
2023-05-24T06:08:10.393Z,79.2615
2023-05-24T06:09:13.370Z,80.0907
2023-05-24T06:10:16.308Z,80.2853
2023-05-24T06:11:19.254Z,80.5038
2023-05-24T06:12:22.254Z,80.4809
2023-05-24T06:13:25.147Z,79.6940
2023-05-24T06:14:28.150Z,79.0930
2023-05-24T06:15:31.060Z,79.1295
2023-05-24T06:16:34.124Z,79.5389
2023-05-24T06:17:36.971Z,80.1608
2023-05-24T06:18:43.212Z,80.3917
2023-05-24T06:19:42.806Z,80.2153
2023-05-24T06:20:46.087Z,80.4224
2023-05-24T06:21:48.813Z,79.9991
2023-05-24T06:22:51.640Z,80.0538
2023-05-24T06:23:54.581Z,80.3247
2023-05-24T06:24:57.532Z,80.9242
2023-05-24T06:26:00.469Z,80.5100
2023-05-24T06:27:05.317Z,80.0349
2023-05-24T06:28:06.370Z,79.9541
2023-05-24T06:29:09.300Z,80.0016
2023-05-24T06:30:12.307Z,80.0872
2023-05-24T06:31:15.259Z,79.7998
2023-05-24T06:32:18.129Z,80.2285
2023-05-24T06:33:21.079Z,79.4576
2023-05-24T06:34:24.036Z,79.5589
2023-05-24T06:35:26.972Z,80.1656
2023-05-24T06:36:29.958Z,80.2918
2023-05-24T06:37:32.863Z,80.5233
2023-05-24T06:38:35.796Z,80.8804
2023-05-24T06:39:38.850Z,80.2241
2023-05-24T06:40:41.945Z,80.6914
2023-05-24T06:41:44.654Z,79.9196
2023-05-24T06:42:47.567Z,80.3318
2023-05-24T06:43:50.514Z,80.8380
2023-05-24T06:44:53.537Z,80.9608
2023-05-24T06:45:56.481Z,80.1189
2023-05-24T06:46:59.488Z,79.5871
2023-05-24T06:48:02.478Z,79.9764
2023-05-24T06:49:05.326Z,80.2630
2023-05-24T06:50:08.273Z,80.4905
2023-05-24T06:51:11.163Z,80.6950
2023-05-24T06:52:14.117Z,80.6513
2023-05-24T06:53:17.021Z,81.1789
2023-05-24T06:54:20.047Z,79.7289
2023-05-24T06:55:22.932Z,79.8496
2023-05-24T06:56:25.881Z,80.0764
2023-05-24T06:57:28.824Z,80.1203
2023-05-24T06:58:31.776Z,80.8530
2023-05-24T06:59:34.784Z,81.0400
2023-05-24T07:00:37.685Z,81.1866
2023-05-24T07:01:40.647Z,80.6816
2023-05-24T07:02:43.592Z,80.3214
2023-05-24T07:03:46.475Z,79.5898
2023-05-24T07:04:49.734Z,79.4446
2023-05-24T07:05:52.482Z,79.3243
2023-05-24T07:06:55.312Z,79.4885
2023-05-24T07:07:58.252Z,80.1592
2023-05-24T07:09:01.198Z,80.2954
2023-05-24T07:10:04.152Z,80.0411
2023-05-24T07:11:07.157Z,79.7026
2023-05-24T07:12:10.037Z,79.7755
2023-05-24T07:13:12.974Z,80.4903
2023-05-24T07:14:15.924Z,79.9525
2023-05-24T07:15:18.893Z,80.2950
2023-05-24T07:16:21.827Z,80.9990
2023-05-24T07:17:24.869Z,80.4836
2023-05-24T07:18:27.704Z,79.8533
2023-05-24T07:19:30.727Z,80.1865
2023-05-24T07:20:33.634Z,80.0515
2023-05-24T07:21:36.531Z,80.5735
2023-05-24T07:22:39.515Z,80.1678
2023-05-24T07:23:42.412Z,79.6135
2023-05-24T07:24:45.362Z,79.3395
2023-05-24T07:25:48.332Z,80.6626
2023-05-24T07:26:51.269Z,81.2152
2023-05-24T07:27:54.207Z,80.5599
2023-05-24T07:28:57.143Z,80.6902
2023-05-24T07:30:00.143Z,80.2826
2023-05-24T07:31:03.061Z,80.2027
2023-05-24T07:32:06.026Z,80.6602
2023-05-24T07:33:09.027Z,79.9256
2023-05-24T07:34:11.878Z,79.9854
2023-05-24T07:35:14.831Z,80.6752
2023-05-24T07:36:17.786Z,79.9589
2023-05-24T07:37:20.718Z,79.8705
2023-05-24T07:38:23.724Z,79.8773
2023-05-24T07:39:26.661Z,80.0750
2023-05-24T07:40:29.546Z,79.9339
2023-05-24T07:41:32.498Z,80.3902
2023-05-24T07:42:35.469Z,79.7033
2023-05-24T07:43:38.385Z,79.3038
2023-05-24T07:44:41.353Z,78.6178
2023-05-24T07:45:44.442Z,78.9274
2023-05-24T07:46:47.279Z,79.6881
2023-05-24T07:47:50.239Z,80.0649
2023-05-24T07:48:53.210Z,79.9934
2023-05-24T07:49:56.160Z,79.6277
2023-05-24T07:50:59.064Z,79.8405
2023-05-24T07:52:02.015Z,79.5602
2023-05-24T07:53:04.960Z,79.3190
2023-05-24T07:54:07.892Z,78.8604
2023-05-24T07:55:10.861Z,78.8208
2023-05-24T07:56:13.772Z,78.5909
2023-05-24T07:57:16.773Z,78.9752
2023-05-24T07:58:19.655Z,79.4682
2023-05-24T07:59:22.610Z,79.2743
2023-05-24T08:00:25.544Z,79.1475
2023-05-24T08:01:28.654Z,79.4061
2023-05-24T08:02:31.528Z,79.3103
2023-05-24T08:03:34.461Z,80.1009
2023-05-24T08:04:37.339Z,79.6138
2023-05-24T08:05:40.398Z,80.1904
2023-05-24T08:06:43.218Z,79.5576
2023-05-24T08:07:46.154Z,79.2615
2023-05-24T08:08:49.095Z,79.2227
2023-05-24T08:09:52.073Z,79.6236
2023-05-24T08:10:55.033Z,79.5468
2023-05-24T08:11:57.996Z,79.9772
2023-05-24T08:13:00.901Z,79.0126
2023-05-24T08:14:03.835Z,79.7843
2023-05-24T08:15:06.791Z,79.8055
2023-05-24T08:16:09.792Z,79.5798
2023-05-24T08:17:12.729Z,79.5516
2023-05-24T08:18:15.627Z,79.7846
2023-05-24T08:19:18.554Z,79.3130
2023-05-24T08:20:21.610Z,79.7580
2023-05-24T08:21:24.486Z,79.7027
2023-05-24T08:22:27.384Z,79.8826
2023-05-24T08:23:30.337Z,79.2052
2023-05-24T08:24:33.302Z,79.0451
2023-05-24T08:25:36.261Z,79.0985
2023-05-24T08:26:39.194Z,78.8555
2023-05-24T08:27:42.113Z,78.8691
2023-05-24T08:28:45.063Z,78.8467
2023-05-24T08:29:48.009Z,79.1456
2023-05-24T08:30:50.979Z,78.7628
2023-05-24T08:31:54.019Z,78.8630
2023-05-24T08:32:57.172Z,79.8182
2023-05-24T08:33:59.797Z,80.1055
2023-05-24T08:35:21.263Z,80.4045
2023-05-24T08:36:05.677Z,79.8236
2023-05-24T08:37:08.645Z,79.1989
2023-05-24T08:38:11.575Z,79.0638
2023-05-24T08:39:14.546Z,77.8758
2023-05-24T08:40:17.525Z,78.3614
2023-05-24T08:41:20.426Z,78.4902
2023-05-24T08:42:23.489Z,78.7587
2023-05-24T08:43:26.324Z,79.3725
2023-05-24T08:44:29.266Z,79.2530
2023-05-24T08:45:32.218Z,79.2662
2023-05-24T08:46:35.227Z,79.7002
2023-05-24T08:47:38.160Z,79.6093
2023-05-24T08:48:41.195Z,79.4427
2023-05-24T08:49:44.031Z,79.6899
2023-05-24T08:50:47.005Z,79.9120
2023-05-24T08:51:50.057Z,79.2977
2023-05-24T08:52:52.854Z,79.6931
2023-05-24T08:53:55.884Z,79.0212
2023-05-24T08:54:58.842Z,78.9212
2023-05-24T08:56:01.719Z,79.1657
2023-05-24T08:57:04.683Z,78.8246
2023-05-24T08:58:07.604Z,78.8687
2023-05-24T08:59:10.583Z,78.9077
2023-05-24T09:00:13.531Z,79.0164
2023-05-24T09:01:16.575Z,78.3655
2023-05-24T09:02:19.412Z,78.7423
2023-05-24T09:03:22.430Z,78.8558
2023-05-24T09:04:25.388Z,78.6084
2023-05-24T09:05:28.221Z,79.4429
2023-05-24T09:06:31.190Z,79.1210
2023-05-24T09:07:34.168Z,78.1788
2023-05-24T09:08:37.073Z,78.1646
2023-05-24T09:09:40.012Z,78.7674
2023-05-24T09:10:54.133Z,78.4696
2023-05-24T09:11:45.909Z,78.0296
2023-05-24T09:12:48.844Z,78.1262
2023-05-24T09:13:51.792Z,78.6425
2023-05-24T09:14:54.744Z,77.4131
2023-05-24T09:15:57.751Z,77.4671
2023-05-24T09:17:00.633Z,78.1823
2023-05-24T09:18:03.593Z,78.4686
2023-05-24T09:19:06.531Z,78.2162
2023-05-24T09:20:09.519Z,78.4763
2023-05-24T09:21:12.440Z,79.2575
2023-05-24T09:22:15.346Z,78.8836
2023-05-24T09:23:18.331Z,78.7994
2023-05-24T09:24:21.262Z,78.4186
2023-05-24T09:25:24.221Z,78.4781
2023-05-24T09:26:27.192Z,78.4224
2023-05-24T09:27:30.123Z,78.1486
2023-05-24T09:28:33.061Z,78.3614
2023-05-24T09:29:36.063Z,78.5106
2023-05-24T09:30:38.947Z,79.3378
2023-05-24T09:31:41.972Z,78.8571
2023-05-24T09:32:44.870Z,78.7947
2023-05-24T09:33:47.813Z,79.1696
2023-05-24T09:34:50.806Z,79.0329
2023-05-24T09:35:53.698Z,78.7283
2023-05-24T09:36:56.671Z,78.3956
2023-05-24T09:37:59.651Z,79.5596
2023-05-24T09:39:02.556Z,78.7108
2023-05-24T09:40:05.514Z,77.8729
2023-05-24T09:41:08.587Z,78.0344
2023-05-24T09:42:11.440Z,78.4370
2023-05-24T09:43:14.380Z,77.8282
2023-05-24T09:44:17.426Z,78.1369
2023-05-24T09:45:20.274Z,78.0215
2023-05-24T09:46:23.366Z,77.9526
2023-05-24T09:47:26.209Z,77.8325
2023-05-24T09:48:29.135Z,78.0826
2023-05-24T09:49:32.138Z,77.7617
2023-05-24T09:50:35.037Z,76.5297
2023-05-24T09:51:38.050Z,77.4662
2023-05-24T09:52:40.949Z,78.8664
2023-05-24T09:53:43.895Z,78.4723
2023-05-24T09:54:46.856Z,77.8427
2023-05-24T09:55:49.840Z,78.0762
2023-05-24T09:56:52.747Z,77.8412
2023-05-24T09:57:55.720Z,78.2356
2023-05-24T09:58:58.680Z,78.0028
2023-05-24T10:00:01.635Z,77.5716
2023-05-24T10:01:04.690Z,78.0126
2023-05-24T10:02:07.527Z,78.0522
2023-05-24T10:03:10.609Z,78.6728
2023-05-24T10:04:13.545Z,78.4525
2023-05-24T10:05:16.385Z,78.0558
2023-05-24T10:06:19.335Z,78.3905
2023-05-24T10:07:22.290Z,78.9659
2023-05-24T10:08:25.343Z,79.2564
2023-05-24T10:09:28.217Z,78.4729
2023-05-24T10:10:31.169Z,77.5914
2023-05-24T10:11:34.115Z,77.9176
2023-05-24T10:12:37.067Z,78.0533
2023-05-24T10:13:40.028Z,77.6865
2023-05-24T10:14:43.059Z,78.2782
2023-05-24T10:15:46.061Z,78.1864
2023-05-24T10:16:48.894Z,77.6338
2023-05-24T10:17:51.856Z,77.4186
2023-05-24T10:18:54.852Z,77.5014
2023-05-24T10:19:57.912Z,77.6738
2023-05-24T10:21:00.882Z,77.3807
2023-05-24T10:22:03.663Z,76.2627
2023-05-24T10:23:06.607Z,76.8755
2023-05-24T10:24:09.537Z,76.4025
2023-05-24T10:25:12.538Z,77.3678
2023-05-24T10:26:15.439Z,77.4061
2023-05-24T10:27:18.397Z,77.2587
2023-05-24T10:28:21.449Z,78.3159
2023-05-24T10:29:24.299Z,77.5449
2023-05-24T10:30:27.268Z,77.8991
2023-05-24T10:31:30.262Z,77.8904
2023-05-24T10:32:33.202Z,77.8169
2023-05-24T10:33:36.131Z,77.3050
2023-05-24T10:34:39.129Z,77.3995
2023-05-24T10:35:42.013Z,76.9382
2023-05-24T10:36:45.041Z,77.4208
2023-05-24T10:37:47.914Z,77.8093
2023-05-24T10:38:50.912Z,78.2710
2023-05-24T10:39:53.812Z,77.2914
2023-05-24T10:40:56.876Z,76.1450
2023-05-24T10:41:59.734Z,76.4903
2023-05-24T10:43:02.675Z,76.5745
2023-05-24T10:44:09.224Z,76.6937
2023-05-24T10:45:08.575Z,76.5401
2023-05-24T10:46:11.582Z,76.9083
2023-05-24T10:47:14.493Z,76.7363
2023-05-24T10:48:17.486Z,76.3755
2023-05-24T10:49:20.385Z,77.0928
2023-05-24T10:50:23.350Z,77.2084
2023-05-24T10:51:26.333Z,77.1576
2023-05-24T10:52:29.245Z,78.0164
2023-05-24T10:53:32.216Z,77.9051
2023-05-24T10:54:35.141Z,77.1711
2023-05-24T10:55:38.110Z,77.4959
2023-05-24T10:56:41.073Z,77.2318
2023-05-24T10:57:44.035Z,76.3527
2023-05-24T10:58:46.975Z,76.5819
2023-05-24T10:59:49.944Z,76.9508
2023-05-24T11:00:53.013Z,76.6861
2023-05-24T11:01:55.846Z,77.1521
2023-05-24T11:02:58.803Z,77.4847
2023-05-24T11:04:01.717Z,77.0559
2023-05-24T11:05:04.727Z,77.6453
2023-05-24T11:06:07.677Z,76.9724
2023-05-24T11:07:10.618Z,77.7715
2023-05-24T11:08:13.520Z,76.9480
2023-05-24T11:09:16.488Z,76.6076
2023-05-24T11:10:19.517Z,77.0996
2023-05-24T11:11:25.077Z,76.9286
2023-05-24T11:12:25.342Z,76.9496
2023-05-24T11:13:28.293Z,76.2656
2023-05-24T11:14:31.296Z,76.4176
2023-05-24T11:15:34.204Z,76.5527
2023-05-24T11:16:37.814Z,76.7913
2023-05-24T11:17:42.224Z,75.6093
2023-05-24T11:18:43.032Z,75.6792
2023-05-24T11:19:46.022Z,76.1013
2023-05-24T11:20:48.993Z,76.2803
2023-05-24T11:21:51.944Z,76.4107
2023-05-24T11:22:54.861Z,76.6367
2023-05-24T11:23:57.808Z,76.3806
2023-05-24T11:25:00.767Z,75.9636
2023-05-24T11:26:03.730Z,75.0732
2023-05-24T11:27:06.683Z,75.9873
2023-05-24T11:28:09.668Z,75.5536
2023-05-24T11:29:12.567Z,76.4590
2023-05-24T11:30:15.526Z,76.0487
2023-05-24T11:31:18.509Z,76.0065
2023-05-24T11:32:21.527Z,75.6316
2023-05-24T11:33:24.398Z,76.5589
2023-05-24T11:34:27.491Z,76.4706
2023-05-24T11:35:30.284Z,76.0540
2023-05-24T11:36:33.271Z,76.1705
2023-05-24T11:37:46.017Z,77.2403
2023-05-24T11:38:39.168Z,76.8415
2023-05-24T11:39:42.094Z,76.6583
2023-05-24T11:40:45.050Z,76.0788
2023-05-24T11:41:48.041Z,75.4690
2023-05-24T11:42:50.962Z,75.3461
2023-05-24T11:43:53.915Z,75.3133
2023-05-24T11:44:56.891Z,75.7324
2023-05-24T11:45:59.883Z,75.9080
2023-05-24T11:47:02.796Z,76.3313
2023-05-24T11:48:05.801Z,76.1687
2023-05-24T11:49:08.727Z,76.1565
2023-05-24T11:50:11.636Z,76.6504
2023-05-24T11:51:14.589Z,76.5038
2023-05-24T11:52:17.557Z,76.6702
2023-05-24T11:53:20.505Z,76.6948
2023-05-24T11:54:23.438Z,75.8095
2023-05-24T11:55:26.409Z,74.8368
2023-05-24T11:56:32.326Z,75.3689
2023-05-24T11:57:32.426Z,76.2524
2023-05-24T11:58:35.289Z,75.9788
2023-05-24T11:59:38.254Z,75.9058
2023-05-24T12:00:41.418Z,76.1713
2023-05-24T12:01:44.152Z,75.5995
2023-05-24T12:02:47.253Z,74.8902
2023-05-24T12:03:50.279Z,76.1886
2023-05-24T12:04:53.104Z,75.7578
2023-05-24T12:05:55.945Z,75.3216
2023-05-24T12:06:58.910Z,74.6899
2023-05-24T12:08:01.897Z,73.7981
2023-05-24T12:09:04.790Z,74.4542
2023-05-24T12:10:07.747Z,74.6960
2023-05-24T12:11:10.687Z,75.1203
2023-05-24T12:12:13.629Z,76.2443
2023-05-24T12:13:16.882Z,75.7046
2023-05-24T12:14:19.704Z,76.3344
2023-05-24T12:15:22.776Z,75.8059
2023-05-24T12:16:25.665Z,74.8892
2023-05-24T12:17:28.557Z,75.9362
2023-05-24T12:18:31.333Z,75.2380
2023-05-24T12:19:34.291Z,75.1373
2023-05-24T12:21:40.160Z,74.4477
2023-05-24T12:22:43.141Z,73.5553
2023-05-24T12:23:46.063Z,73.8751
2023-05-24T12:24:49.021Z,74.6176
2023-05-24T12:25:51.977Z,75.7271
2023-05-24T12:26:54.902Z,76.4454
2023-05-24T12:27:57.862Z,74.7895
2023-05-24T12:29:00.820Z,74.2497
2023-05-24T12:30:03.743Z,75.4250
2023-05-24T12:31:06.731Z,75.3692
2023-05-24T12:32:09.637Z,75.5872
2023-05-24T12:33:12.583Z,75.0191
2023-05-24T12:34:15.536Z,74.7690
2023-05-24T12:35:18.469Z,74.3631
2023-05-24T12:36:21.405Z,73.7991
2023-05-24T12:37:24.374Z,73.7332
2023-05-24T12:38:27.287Z,73.9672
2023-05-24T12:39:30.243Z,73.7702
2023-05-24T12:40:33.184Z,74.0905
2023-05-24T12:41:36.141Z,73.7304
2023-05-24T12:42:39.078Z,73.1911